Time;durP1;ratioP1;P1;durP2;ratioP2;P2;SDS_P1;SDS_P2;PMS_P1;PMS_P2;Temp;Humidity;BMP_temperature;BMP_pressure;BME280_temperature;BME280_humidity;BME280_pressure;Samples;Min_cycle;Max_cycle;Signal;HPM_P1;HPM_P2
2023/07/20 00:00:27;;;;;;;905.88;673.22;;;;;;;;;;5034333;28;20927;-66
2023/07/20 00:03:10;;;;;;;901.22;662.33;;;;;;;;;;5027204;28;20457;-67
2023/07/20 00:05:37;;;;;;;902.45;665.85;;;;;;;;;;5034977;28;20429;-66
2023/07/20 00:08:04;;;;;;;905.08;670.03;;;;;;;;;;5027294;28;20468;-68
2023/07/20 00:10:31;;;;;;;910.65;675.67;;;;;;;;;;5025680;28;20426;-66
2023/07/20 00:13:04;;;;;;;888.65;648.63;;;;;;;;;;5023986;28;20438;-66
2023/07/20 00:15:31;;;;;;;872.67;634.23;;;;;;;;;;5025592;28;20522;-66
2023/07/20 00:17:59;;;;;;;869.28;629.92;;;;;;;;;;5036624;28;20461;-68
2023/07/20 00:20:26;;;;;;;869.45;623.88;;;;;;;;;;5032908;28;20935;-67
2023/07/20 00:22:54;;;;;;;865.95;608.08;;;;;;;;;;5030989;28;20526;-67
2023/07/20 00:25:22;;;;;;;853.85;589.10;;;;;;;;;;5038783;28;21123;-66
2023/07/20 00:27:49;;;;;;;853.78;598.40;;;;;;;;;;5033606;28;20431;-66
2023/07/20 00:30:16;;;;;;;938.77;675.87;;;;;;;;;;5024253;28;20556;-66
2023/07/20 00:32:43;;;;;;;920.15;657.28;;;;;;;;;;5029436;28;20439;-66
2023/07/20 00:35:11;;;;;;;902.72;637.38;;;;;;;;;;5034447;28;20991;-66
2023/07/20 00:37:39;;;;;;;839.25;558.17;;;;;;;;;;5028914;28;20458;-67
2023/07/20 00:40:07;;;;;;;826.53;573.40;;;;;;;;;;5034067;28;20433;-66
2023/07/20 00:42:34;;;;;;;836.67;544.08;;;;;;;;;;5012904;28;20428;-66
2023/07/20 00:45:04;;;;;;;14.65;13.52;;;;;;;;;;5032931;28;20462;-67
2023/07/20 00:47:39;;;;;;;908.42;645.47;;;;;;;;;;5036693;28;20469;-66
2023/07/20 00:50:07;;;;;;;898.78;640.90;;;;;;;;;;5027191;28;20436;-67
2023/07/20 00:52:34;;;;;;;878.00;622.50;;;;;;;;;;5026550;28;20478;-67
2023/07/20 00:55:01;;;;;;;853.75;606.05;;;;;;;;;;5034111;28;20470;-67
2023/07/20 00:57:32;;;;;;;841.58;593.20;;;;;;;;;;5035247;28;20425;-67
2023/07/20 00:59:59;;;;;;;816.55;573.83;;;;;;;;;;5030726;28;21005;-67
2023/07/20 01:02:27;;;;;;;814.83;570.28;;;;;;;;;;5034031;28;20942;-67
2023/07/20 01:04:54;;;;;;;806.13;556.80;;;;;;;;;;5023966;28;20433;-67
2023/07/20 01:07:27;;;;;;;803.83;557.97;;;;;;;;;;5016477;28;20840;-66
2023/07/20 01:10:09;;;;;;;807.65;550.00;;;;;;;;;;5027291;28;20796;-67
2023/07/20 01:12:42;;;;;;;792.07;537.97;;;;;;;;;;5034760;28;20517;-67
2023/07/20 01:15:10;;;;;;;797.85;550.05;;;;;;;;;;5028844;28;20431;-67
2023/07/20 01:17:37;;;;;;;801.10;541.13;;;;;;;;;;5028232;28;20453;-66
2023/07/20 01:20:09;;;;;;;800.75;553.35;;;;;;;;;;5034380;28;20427;-67
2023/07/20 01:22:51;;;;;;;799.83;542.83;;;;;;;;;;5013099;28;21007;-67
2023/07/20 01:25:18;;;;;;;805.13;547.30;;;;;;;;;;5034288;28;20434;-67
2023/07/20 01:27:48;;;;;;;797.95;532.88;;;;;;;;;;5032427;28;20425;-66
2023/07/20 01:30:31;;;;;;;816.77;568.77;;;;;;;;;;5035650;28;20558;-67
2023/07/20 01:32:59;;;;;;;810.83;542.03;;;;;;;;;;5028754;28;20610;-67
2023/07/20 01:35:28;;;;;;;810.78;541.60;;;;;;;;;;5033875;28;20963;-67
2023/07/20 01:37:55;;;;;;;798.35;530.05;;;;;;;;;;5027297;28;20525;-67
2023/07/20 01:40:25;;;;;;;808.10;521.10;;;;;;;;;;5023836;28;20434;-67
2023/07/20 01:42:53;;;;;;;816.83;557.05;;;;;;;;;;5030262;28;20426;-67
2023/07/20 01:45:21;;;;;;;805.63;546.85;;;;;;;;;;5021693;28;20732;-67
2023/07/20 01:47:48;;;;;;;1.98;1.88;;;;;;;;;;5027810;28;20477;-67
2023/07/20 01:50:17;;;;;;;10.65;9.68;;;;;;;;;;5030524;28;20491;-67
2023/07/20 01:52:44;;;;;;;111.95;102.88;;;;;;;;;;5020098;28;20485;-67
2023/07/20 01:55:11;;;;;;;880.40;672.17;;;;;;;;;;5028657;28;20960;-67
2023/07/20 01:57:38;;;;;;;925.85;666.95;;;;;;;;;;5033651;28;20508;-67
2023/07/20 02:00:06;;;;;;;896.95;596.20;;;;;;;;;;5022535;28;20515;-67
2023/07/20 02:02:33;;;;;;;805.95;498.58;;;;;;;;;;5010619;28;20821;-67
2023/07/20 02:05:01;;;;;;;800.13;503.73;;;;;;;;;;5020669;28;20448;-67
2023/07/20 02:07:28;;;;;;;795.80;500.73;;;;;;;;;;5029061;28;20425;-67
2023/07/20 02:09:55;;;;;;;807.72;509.02;;;;;;;;;;5026466;28;20435;-67
2023/07/20 02:12:22;;;;;;;807.58;517.80;;;;;;;;;;5030959;28;20437;-67
2023/07/20 02:14:51;;;;;;;799.23;509.77;;;;;;;;;;5030621;28;20566;-67
2023/07/20 02:17:18;;;;;;;847.08;546.35;;;;;;;;;;5024832;28;20487;-67
2023/07/20 02:19:45;;;;;;;831.97;608.78;;;;;;;;;;5019022;28;20434;-67
2023/07/20 02:22:12;;;;;;;844.10;579.22;;;;;;;;;;5038061;28;20761;-68
2023/07/20 02:24:39;;;;;;;883.05;592.83;;;;;;;;;;5028616;28;20427;-67
2023/07/20 02:27:07;;;;;;;812.70;557.67;;;;;;;;;;5017422;28;20500;-67
2023/07/20 02:29:34;;;;;;;804.00;560.40;;;;;;;;;;5033206;28;20887;-67
2023/07/20 02:32:01;;;;;;;863.25;566.65;;;;;;;;;;5033291;28;20437;-67
2023/07/20 02:34:28;;;;;;;870.05;608.58;;;;;;;;;;5033752;28;20960;-71
2023/07/20 02:36:58;;;;;;;92.68;83.18;;;;;;;;;;5032613;28;20503;-67
2023/07/20 02:39:25;;;;;;;818.40;544.00;;;;;;;;;;5032661;28;20421;-67
2023/07/20 02:41:52;;;;;;;802.53;532.60;;;;;;;;;;5029909;28;20491;-67
2023/07/20 02:44:19;;;;;;;809.22;536.75;;;;;;;;;;5035515;28;20502;-67
2023/07/20 02:46:47;;;;;;;795.15;517.08;;;;;;;;;;5032163;28;20463;-67
2023/07/20 02:49:14;;;;;;;802.50;527.05;;;;;;;;;;5038513;28;20427;-67
2023/07/20 02:51:41;;;;;;;810.60;531.92;;;;;;;;;;5031031;28;20435;-67
2023/07/20 02:54:08;;;;;;;807.10;519.08;;;;;;;;;;5031393;28;20431;-67
2023/07/20 02:56:35;;;;;;;803.10;534.67;;;;;;;;;;5033403;28;20434;-67
2023/07/20 02:59:08;;;;;;;799.53;538.53;;;;;;;;;;5032864;28;20489;-67
2023/07/20 03:01:36;;;;;;;804.25;539.00;;;;;;;;;;5032649;28;20465;-67
2023/07/20 03:04:03;;;;;;;802.85;548.50;;;;;;;;;;5039399;28;20429;-67
2023/07/20 03:06:35;;;;;;;799.42;539.80;;;;;;;;;;5046291;28;20953;-67
2023/07/20 03:09:03;;;;;;;800.28;534.15;;;;;;;;;;5037728;28;20433;-67
2023/07/20 03:11:30;;;;;;;801.92;515.58;;;;;;;;;;5031909;28;20450;-67
2023/07/20 03:14:00;;;;;;;799.90;523.35;;;;;;;;;;5028552;28;20897;-67
2023/07/20 03:16:27;;;;;;;802.15;534.25;;;;;;;;;;5031176;28;20460;-67
2023/07/20 03:18:55;;;;;;;803.53;543.28;;;;;;;;;;5031769;28;20430;-67
2023/07/20 03:21:22;;;;;;;802.47;534.53;;;;;;;;;;5028982;28;20465;-67
2023/07/20 03:23:49;;;;;;;794.60;524.70;;;;;;;;;;5038113;28;20459;-67
2023/07/20 03:26:16;;;;;;;788.58;518.58;;;;;;;;;;5034316;28;20440;-67
2023/07/20 03:28:45;;;;;;;785.13;506.05;;;;;;;;;;5030287;28;20438;-66
2023/07/20 03:31:14;;;;;;;785.75;501.80;;;;;;;;;;5030574;28;20970;-67
2023/07/20 03:33:42;;;;;;;773.53;491.73;;;;;;;;;;5028706;28;20453;-66
2023/07/20 03:36:10;;;;;;;773.90;491.73;;;;;;;;;;5023788;28;20431;-67
2023/07/20 03:38:37;;;;;;;825.25;535.65;;;;;;;;;;5034498;28;20495;-67
2023/07/20 03:41:04;;;;;;;772.95;508.52;;;;;;;;;;5028443;28;20719;-67
2023/07/20 03:43:34;;;;;;;764.95;491.08;;;;;;;;;;5030160;28;20588;-67
2023/07/20 03:46:07;;;;;;;766.67;501.08;;;;;;;;;;5024514;28;20463;-66
2023/07/20 03:48:34;;;;;;;761.33;491.10;;;;;;;;;;5036566;28;20437;-66
2023/07/20 03:51:01;;;;;;;764.28;496.73;;;;;;;;;;5029752;28;20440;-67
2023/07/20 03:53:31;;;;;;;793.63;503.07;;;;;;;;;;5014919;28;20458;-67
2023/07/20 03:56:01;;;;;;;595.92;530.83;;;;;;;;;;5032025;28;20435;-67
2023/07/20 03:58:29;;;;;;;845.08;538.00;;;;;;;;;;5021509;28;20445;-67
2023/07/20 04:00:59;;;;;;;236.55;172.10;;;;;;;;;;5023073;28;20470;-67
2023/07/20 04:03:26;;;;;;;762.95;475.98;;;;;;;;;;5035306;28;20482;-67
2023/07/20 04:05:57;;;;;;;775.03;487.63;;;;;;;;;;5023827;28;20431;-67
2023/07/20 04:08:30;;;;;;;758.05;483.45;;;;;;;;;;5026433;28;20435;-67
2023/07/20 04:10:57;;;;;;;761.05;483.17;;;;;;;;;;5031420;28;20459;-67
2023/07/20 04:13:25;;;;;;;762.95;496.92;;;;;;;;;;5023783;28;20462;-67
2023/07/20 04:15:52;;;;;;;758.25;497.20;;;;;;;;;;5029464;28;20437;-67
2023/07/20 04:18:19;;;;;;;758.33;495.97;;;;;;;;;;5033402;28;20446;-67
2023/07/20 04:20:49;;;;;;;759.38;491.70;;;;;;;;;;5032529;28;20507;-67
2023/07/20 04:23:17;;;;;;;759.38;494.17;;;;;;;;;;5030051;28;20435;-67
2023/07/20 04:25:47;;;;;;;763.60;497.08;;;;;;;;;;5035202;28;20426;-67
2023/07/20 04:28:14;;;;;;;756.13;499.80;;;;;;;;;;5030065;28;20928;-68
2023/07/20 04:30:42;;;;;;;760.35;495.73;;;;;;;;;;5037134;28;20461;-67
2023/07/20 04:33:12;;;;;;;396.80;265.02;;;;;;;;;;5009864;28;20491;-68
2023/07/20 04:35:48;;;;;;;3.00;1.52;;;;;;;;;;5030941;28;20461;-66
2023/07/20 04:38:17;;;;;;;126.70;115.07;;;;;;;;;;5031201;28;20512;-65
2023/07/20 04:40:45;;;;;;;884.97;625.00;;;;;;;;;;5026574;28;20504;-65
2023/07/20 04:43:13;;;;;;;873.63;571.85;;;;;;;;;;5025209;28;20476;-66
2023/07/20 04:45:40;;;;;;;5.33;2.00;;;;;;;;;;5031407;28;20425;-66
2023/07/20 04:48:10;;;;;;;42.33;36.67;;;;;;;;;;5019735;28;20487;-66
2023/07/20 04:50:38;;;;;;;175.15;159.30;;;;;;;;;;5028981;28;20429;-66
2023/07/20 04:53:05;;;;;;;789.90;650.30;;;;;;;;;;5035043;28;20446;-65
2023/07/20 04:55:36;;;;;;;808.88;578.95;;;;;;;;;;5030867;28;20988;-66
2023/07/20 04:58:04;;;;;;;817.85;580.88;;;;;;;;;;5031419;28;20931;-65
2023/07/20 05:00:31;;;;;;;815.80;574.20;;;;;;;;;;5029113;28;20465;-67
2023/07/20 05:02:59;;;;;;;822.80;606.95;;;;;;;;;;5027439;28;20755;-67
2023/07/20 05:05:26;;;;;;;821.95;597.00;;;;;;;;;;5040768;28;20427;-66
2023/07/20 05:07:54;;;;;;;828.33;601.08;;;;;;;;;;5026888;28;20463;-66
2023/07/20 05:10:21;;;;;;;831.95;600.22;;;;;;;;;;5028301;28;20478;-66
2023/07/20 05:12:49;;;;;;;833.35;615.15;;;;;;;;;;5021113;28;20522;-66
2023/07/20 05:15:28;;;;;;;855.38;614.35;;;;;;;;;;5026219;28;20444;-66
2023/07/20 05:18:04;;;;;;;866.10;625.65;;;;;;;;;;5028985;28;20433;-65
2023/07/20 05:20:33;;;;;;;866.22;638.33;;;;;;;;;;5026153;28;20846;-65
2023/07/20 05:23:01;;;;;;;875.72;653.58;;;;;;;;;;5030057;28;20749;-66
2023/07/20 05:25:31;;;;;;;878.53;654.20;;;;;;;;;;5029697;28;20438;-65
2023/07/20 05:27:58;;;;;;;874.40;660.17;;;;;;;;;;5028743;28;20465;-65
2023/07/20 05:30:25;;;;;;;860.93;643.43;;;;;;;;;;5030527;28;20433;-65
2023/07/20 05:32:54;;;;;;;876.38;670.15;;;;;;;;;;5024415;28;20506;-65
2023/07/20 05:35:22;;;;;;;857.80;646.30;;;;;;;;;;5026103;28;20467;-65
2023/07/20 05:37:49;;;;;;;855.25;645.72;;;;;;;;;;5016258;28;20430;-65
2023/07/20 05:40:18;;;;;;;870.85;652.42;;;;;;;;;;5024924;28;20440;-66
2023/07/20 05:42:47;;;;;;;891.95;685.75;;;;;;;;;;5026275;28;20439;-66
2023/07/20 05:45:15;;;;;;;959.13;779.57;;;;;;;;;;5020335;28;20436;-66
2023/07/20 05:47:42;;;;;;;897.15;706.40;;;;;;;;;;5018778;28;20514;-66
2023/07/20 05:50:10;;;;;;;879.97;697.53;;;;;;;;;;5020450;28;21005;-66
2023/07/20 05:52:38;;;;;;;879.33;709.45;;;;;;;;;;5022635;28;20478;-66
2023/07/20 05:55:06;;;;;;;925.95;749.50;;;;;;;;;;5008987;28;20526;-67
2023/07/20 05:57:35;;;;;;;915.75;745.80;;;;;;;;;;5016969;28;20523;-66
2023/07/20 06:00:03;;;;;;;908.67;733.67;;;;;;;;;;5033266;28;20948;-66
2023/07/20 06:02:30;;;;;;;905.60;734.33;;;;;;;;;;5032719;28;20462;-67
2023/07/20 06:04:57;;;;;;;904.75;739.00;;;;;;;;;;5028963;28;21103;-66
2023/07/20 06:07:27;;;;;;;922.80;767.65;;;;;;;;;;5032830;28;20550;-67
2023/07/20 06:09:54;;;;;;;922.47;762.40;;;;;;;;;;5037003;28;20481;-67
2023/07/20 06:12:27;;;;;;;922.00;762.38;;;;;;;;;;5031099;28;20525;-66
2023/07/20 06:14:54;;;;;;;969.75;874.90;;;;;;;;;;5028866;28;20507;-66
2023/07/20 06:17:23;;;;;;;284.83;260.27;;;;;;;;;;5031674;28;20959;-67
2023/07/20 06:19:50;;;;;;;332.77;304.73;;;;;;;;;;5034589;28;20919;-68
2023/07/20 06:22:18;;;;;;;1029.60;930.75;;;;;;;;;;5036676;28;20488;-65
2023/07/20 06:24:45;;;;;;;1012.25;884.53;;;;;;;;;;5028577;28;20929;-65
2023/07/20 06:27:12;;;;;;;1001.15;869.58;;;;;;;;;;5012738;28;20838;-66
2023/07/20 06:29:39;;;;;;;991.15;863.50;;;;;;;;;;5029660;28;20820;-66
2023/07/20 06:32:13;;;;;;;84.45;76.20;;;;;;;;;;5029652;28;20438;-66
2023/07/20 06:34:43;;;;;;;152.18;136.10;;;;;;;;;;5030076;28;20928;-67
2023/07/20 06:37:10;;;;;;;1004.42;881.83;;;;;;;;;;5022700;28;21187;-66
2023/07/20 06:39:42;;;;;;;307.13;280.70;;;;;;;;;;5032052;28;20436;-66
2023/07/20 06:42:15;;;;;;;1.77;1.67;;;;;;;;;;5034225;28;20461;-66
2023/07/20 06:44:42;;;;;;;1031.35;935.45;;;;;;;;;;5029829;28;21307;-66
2023/07/20 06:47:10;;;;;;;972.47;887.22;;;;;;;;;;5025728;28;20473;-65
2023/07/20 06:49:37;;;;;;;179.25;163.82;;;;;;;;;;5031150;28;20433;-66
2023/07/20 06:52:10;;;;;;;559.03;501.58;;;;;;;;;;5038948;28;21050;-66
2023/07/20 06:54:38;;;;;;;7.35;6.00;;;;;;;;;;5015237;28;20915;-65
2023/07/20 06:57:10;;;;;;;388.70;351.40;;;;;;;;;;5007805;28;20551;-65
2023/07/20 06:59:40;;;;;;;3.92;1.80;;;;;;;;;;5032171;28;20435;-66
2023/07/20 07:02:08;;;;;;;32.38;28.88;;;;;;;;;;5027052;28;20426;-66
2023/07/20 07:04:45;;;;;;;8.85;7.57;;;;;;;;;;5009948;28;20951;-66
2023/07/20 07:07:12;;;;;;;119.55;108.38;;;;;;;;;;5031507;28;20525;-66
2023/07/20 07:09:39;;;;;;;916.70;835.60;;;;;;;;;;5027904;28;20520;-66
2023/07/20 07:12:07;;;;;;;1024.28;923.70;;;;;;;;;;5027994;28;20959;-68
2023/07/20 07:14:35;;;;;;;1016.78;907.10;;;;;;;;;;5030075;28;20430;-66
2023/07/20 07:17:02;;;;;;;1032.30;895.63;;;;;;;;;;5027043;28;20434;-67
2023/07/20 07:19:31;;;;;;;817.30;744.72;;;;;;;;;;5024911;28;20432;-66
2023/07/20 07:21:59;;;;;;;14.97;13.93;;;;;;;;;;5024781;28;20473;-68
2023/07/20 07:24:33;;;;;;;457.95;417.48;;;;;;;;;;5017412;28;20434;-65
2023/07/20 07:27:01;;;;;;;221.20;202.27;;;;;;;;;;5033973;28;20454;-66
2023/07/20 07:29:28;;;;;;;399.00;363.93;;;;;;;;;;5029395;28;20887;-67
2023/07/20 07:31:56;;;;;;;1025.00;882.00;;;;;;;;;;5024733;28;20505;-67
2023/07/20 07:34:23;;;;;;;984.80;833.45;;;;;;;;;;5025003;28;20428;-67
2023/07/20 07:36:50;;;;;;;970.65;839.53;;;;;;;;;;5027884;28;20443;-67
2023/07/20 07:39:20;;;;;;;1.73;1.60;;;;;;;;;;5024409;28;20488;-67
2023/07/20 07:41:50;;;;;;;2.27;1.63;;;;;;;;;;5003073;28;20917;-66
2023/07/20 07:44:17;;;;;;;7.00;6.57;;;;;;;;;;5014266;28;20438;-65
2023/07/20 07:46:44;;;;;;;5.82;5.40;;;;;;;;;;5030727;28;20431;-66
2023/07/20 07:49:11;;;;;;;4.10;1.70;;;;;;;;;;5006684;28;20435;-66
2023/07/20 07:51:39;;;;;;;3.10;2.30;;;;;;;;;;5028787;28;20431;-67
2023/07/20 07:54:08;;;;;;;4.80;2.00;;;;;;;;;;5026956;28;20916;-67
2023/07/20 07:56:35;;;;;;;2.33;2.13;;;;;;;;;;5031610;28;21016;-66
2023/07/20 07:59:03;;;;;;;967.22;882.05;;;;;;;;;;5032477;28;20470;-64
2023/07/20 08:01:30;;;;;;;923.40;839.58;;;;;;;;;;5031976;28;20479;-66
2023/07/20 08:03:57;;;;;;;1053.28;942.55;;;;;;;;;;5024581;28;20441;-64
2023/07/20 08:06:25;;;;;;;1082.53;983.25;;;;;;;;;;5023027;28;20461;-65
2023/07/20 08:08:55;;;;;;;102.03;92.47;;;;;;;;;;5030898;28;20518;-66
2023/07/20 08:11:30;;;;;;;363.70;332.10;;;;;;;;;;5027022;28;20462;-66
2023/07/20 08:13:57;;;;;;;3.05;1.52;;;;;;;;;;5028107;28;20427;-65
2023/07/20 08:16:25;;;;;;;1.98;1.52;;;;;;;;;;5013275;28;20995;-65
2023/07/20 08:18:53;;;;;;;60.53;55.85;;;;;;;;;;5025970;28;20431;-66
2023/07/20 08:21:24;;;;;;;595.10;540.27;;;;;;;;;;5030239;28;20828;-65
2023/07/20 08:23:51;;;;;;;161.07;145.97;;;;;;;;;;5027904;28;21109;-67
2023/07/20 08:26:22;;;;;;;15.70;14.63;;;;;;;;;;5019512;28;20436;-66
2023/07/20 08:28:52;;;;;;;85.28;73.70;;;;;;;;;;5024158;28;20431;-67
2023/07/20 08:31:20;;;;;;;298.48;273.08;;;;;;;;;;5030535;28;20437;-64
2023/07/20 08:33:48;;;;;;;105.90;96.90;;;;;;;;;;5027009;28;20514;-63
2023/07/20 08:36:17;;;;;;;1.83;1.70;;;;;;;;;;5023108;28;21167;-64
2023/07/20 08:38:47;;;;;;;2.30;1.77;;;;;;;;;;5023694;28;20466;-63
2023/07/20 08:41:15;;;;;;;2.63;1.70;;;;;;;;;;5010220;28;20991;-64
2023/07/20 08:43:43;;;;;;;4.43;1.80;;;;;;;;;;5026178;28;20427;-65
2023/07/20 08:46:13;;;;;;;2.85;1.30;;;;;;;;;;5028940;28;20481;-65
2023/07/20 08:48:41;;;;;;;1.60;1.50;;;;;;;;;;5027764;28;20430;-67
2023/07/20 08:51:08;;;;;;;487.92;445.67;;;;;;;;;;5027973;28;20484;-66
2023/07/20 08:53:35;;;;;;;828.28;756.38;;;;;;;;;;5024181;28;20465;-65
2023/07/20 08:56:04;;;;;;;890.53;814.30;;;;;;;;;;5024712;28;20473;-67
2023/07/20 08:58:31;;;;;;;999.90;899.13;;;;;;;;;;5020282;28;20432;-65
2023/07/20 09:01:00;;;;;;;1099.90;995.53;;;;;;;;;;5022362;28;20554;-64
2023/07/20 09:03:30;;;;;;;909.10;831.20;;;;;;;;;;5028618;28;20900;-68
2023/07/20 09:05:57;;;;;;;1070.05;952.58;;;;;;;;;;5027875;28;20465;-66
2023/07/20 09:08:25;;;;;;;1065.65;954.88;;;;;;;;;;5024007;28;20438;-67
2023/07/20 09:10:52;;;;;;;631.67;575.22;;;;;;;;;;5026494;28;20438;-68
2023/07/20 09:13:22;;;;;;;1115.73;996.57;;;;;;;;;;5024113;28;20477;-67
2023/07/20 09:15:53;;;;;;;114.65;104.45;;;;;;;;;;5024497;28;20494;-66
2023/07/20 09:18:28;;;;;;;382.47;348.33;;;;;;;;;;5013866;28;20440;-67
2023/07/20 09:21:06;;;;;;;412.15;375.50;;;;;;;;;;5026208;28;20419;-66
2023/07/20 09:23:38;;;;;;;706.03;647.47;;;;;;;;;;5031174;28;20540;-65
2023/07/20 09:26:16;;;;;;;44.55;40.25;;;;;;;;;;5025958;28;20435;-65
2023/07/20 09:28:44;;;;;;;1.52;1.42;;;;;;;;;;5016082;28;20431;-65
2023/07/20 09:31:18;;;;;;;1.55;1.45;;;;;;;;;;5026151;28;20495;-68
2023/07/20 09:33:46;;;;;;;1.35;1.25;;;;;;;;;;5026753;28;20764;-66
2023/07/20 09:36:16;;;;;;;1.40;1.20;;;;;;;;;;5027953;28;20435;-67
2023/07/20 09:39:04;;;;;;;2.05;1.30;;;;;;;;;;5006054;28;20771;-66
2023/07/20 09:41:42;;;;;;;1.35;1.30;;;;;;;;;;5016570;28;20425;-68
2023/07/20 09:44:12;;;;;;;2.83;1.65;;;;;;;;;;5021092;28;20466;-67
2023/07/20 09:46:43;;;;;;;1.83;1.40;;;;;;;;;;5026647;28;20525;-66
2023/07/20 09:49:13;;;;;;;1.90;1.63;;;;;;;;;;5022857;28;21068;-65
2023/07/20 09:51:43;;;;;;;1.75;1.58;;;;;;;;;;5024354;28;20521;-67
2023/07/20 09:54:14;;;;;;;1.95;1.60;;;;;;;;;;5018657;28;20443;-68
2023/07/20 09:56:43;;;;;;;1.65;1.60;;;;;;;;;;5027756;28;20447;-66
2023/07/20 09:59:10;;;;;;;1.57;1.47;;;;;;;;;;5027190;28;21060;-63
2023/07/20 10:01:41;;;;;;;2.72;1.58;;;;;;;;;;5013432;28;20453;-65
2023/07/20 10:04:12;;;;;;;1.30;1.30;;;;;;;;;;5025391;28;20516;-65
2023/07/20 10:06:45;;;;;;;2.13;1.40;;;;;;;;;;5022680;28;20475;-66
2023/07/20 10:09:13;;;;;;;2.80;2.33;;;;;;;;;;5022286;28;20531;-65
2023/07/20 10:11:46;;;;;;;25.73;23.17;;;;;;;;;;5020410;28;20506;-68
2023/07/20 10:14:21;;;;;;;2.38;2.05;;;;;;;;;;5022965;28;20430;-64
2023/07/20 10:16:52;;;;;;;37.13;33.43;;;;;;;;;;5024292;28;20864;-68
2023/07/20 10:19:31;;;;;;;70.95;64.72;;;;;;;;;;5024270;28;20451;-67
2023/07/20 10:22:04;;;;;;;3.65;1.30;;;;;;;;;;5023453;28;20430;-67
2023/07/20 10:24:36;;;;;;;31.17;28.17;;;;;;;;;;5022332;28;21082;-68
2023/07/20 10:27:04;;;;;;;11.45;10.43;;;;;;;;;;5022332;28;21055;-66
2023/07/20 10:29:34;;;;;;;2.97;2.45;;;;;;;;;;5020460;28;20455;-66
2023/07/20 10:32:02;;;;;;;51.25;47.45;;;;;;;;;;5025977;28;20515;-68
2023/07/20 10:34:32;;;;;;;333.58;304.42;;;;;;;;;;5026256;28;20543;-67
2023/07/20 10:37:00;;;;;;;888.13;804.20;;;;;;;;;;5029228;28;20801;-67
2023/07/20 10:39:32;;;;;;;913.80;818.30;;;;;;;;;;5028343;28;20433;-70
2023/07/20 10:42:03;;;;;;;2.17;1.50;;;;;;;;;;5021777;28;20435;-68
2023/07/20 10:44:31;;;;;;;138.07;125.77;;;;;;;;;;5030795;28;20429;-67
2023/07/20 10:47:02;;;;;;;667.13;611.33;;;;;;;;;;5027066;28;20535;-69
2023/07/20 10:49:33;;;;;;;5.85;5.53;;;;;;;;;;5004007;28;20524;-67
2023/07/20 10:52:04;;;;;;;131.40;121.32;;;;;;;;;;5031661;28;20431;-67
2023/07/20 10:54:31;;;;;;;577.70;528.15;;;;;;;;;;5041702;28;20425;-66
2023/07/20 10:57:19;;;;;;;7.97;7.15;;;;;;;;;;5029944;28;21148;-67
2023/07/20 10:59:47;;;;;;;2.05;1.70;;;;;;;;;;5035945;28;20433;-69
2023/07/20 11:02:18;;;;;;;3.67;1.70;;;;;;;;;;5033470;28;20434;-66
2023/07/20 11:04:48;;;;;;;25.17;23.30;;;;;;;;;;5027530;28;20536;-67
2023/07/20 11:07:17;;;;;;;2.10;1.63;;;;;;;;;;5029008;28;20450;-67
2023/07/20 11:09:45;;;;;;;2.10;1.70;;;;;;;;;;5033980;28;20437;-66
2023/07/20 11:12:18;;;;;;;3.53;1.53;;;;;;;;;;5021861;28;20439;-68
2023/07/20 11:14:59;;;;;;;1.60;1.50;;;;;;;;;;5024087;28;20441;-68
2023/07/20 11:17:32;;;;;;;1.48;1.35;;;;;;;;;;5031849;28;20444;-66
2023/07/20 11:20:01;;;;;;;1.77;1.65;;;;;;;;;;5023561;28;20431;-68
2023/07/20 11:22:34;;;;;;;1.88;1.67;;;;;;;;;;5029792;28;20434;-68
2023/07/20 11:25:01;;;;;;;2.85;1.65;;;;;;;;;;5018672;28;20493;-69
2023/07/20 11:27:28;;;;;;;1.70;1.60;;;;;;;;;;5028165;28;20429;-69
2023/07/20 11:29:56;;;;;;;1.90;1.80;;;;;;;;;;5025680;28;20431;-68
2023/07/20 11:32:24;;;;;;;2.58;1.60;;;;;;;;;;5021043;28;20441;-69
2023/07/20 11:34:52;;;;;;;1.95;1.60;;;;;;;;;;5027670;28;20477;-67
2023/07/20 11:37:19;;;;;;;1.33;1.33;;;;;;;;;;5029974;28;20474;-69
2023/07/20 11:39:47;;;;;;;3.38;1.60;;;;;;;;;;5023595;28;20439;-69
2023/07/20 11:42:15;;;;;;;1.30;1.20;;;;;;;;;;5030812;28;21043;-69
2023/07/20 11:45:06;;;;;;;1.75;1.55;;;;;;;;;;5021159;28;20423;-68
2023/07/20 11:47:33;;;;;;;2.03;1.60;;;;;;;;;;5031216;28;20429;-68
2023/07/20 11:50:04;;;;;;;1.83;1.67;;;;;;;;;;5024246;28;20605;-67
2023/07/20 11:52:31;;;;;;;1.52;1.42;;;;;;;;;;5029584;28;20436;-67
2023/07/20 11:54:59;;;;;;;8.73;1.47;;;;;;;;;;5024694;28;20456;-67
2023/07/20 11:57:26;;;;;;;2.70;1.52;;;;;;;;;;5029153;28;20457;-67
2023/07/20 11:59:58;;;;;;;1.93;1.70;;;;;;;;;;5035513;28;21054;-67
2023/07/20 12:02:27;;;;;;;1.55;1.45;;;;;;;;;;5007674;28;20431;-67
2023/07/20 12:04:55;;;;;;;1.65;1.50;;;;;;;;;;5025356;28;20429;-66
2023/07/20 12:07:22;;;;;;;1.60;1.50;;;;;;;;;;5030618;28;20489;-68
2023/07/20 12:10:05;;;;;;;1.92;1.60;;;;;;;;;;5014011;28;20959;-68
2023/07/20 12:12:33;;;;;;;3.00;1.63;;;;;;;;;;5027192;28;20441;-67
2023/07/20 12:15:14;;;;;;;1.92;1.52;;;;;;;;;;5028207;28;20430;-70
2023/07/20 12:17:45;;;;;;;3.38;1.30;;;;;;;;;;5030442;28;20431;-69
2023/07/20 12:20:13;;;;;;;1.50;1.30;;;;;;;;;;5021717;28;20431;-67
2023/07/20 12:22:41;;;;;;;1.60;1.50;;;;;;;;;;5025559;28;20524;-67
2023/07/20 12:25:08;;;;;;;3.30;1.50;;;;;;;;;;5022362;28;20976;-67
2023/07/20 12:27:37;;;;;;;2.20;1.60;;;;;;;;;;5031739;28;20426;-68
2023/07/20 12:30:07;;;;;;;2.25;1.50;;;;;;;;;;5030307;28;20431;-68
2023/07/20 12:32:35;;;;;;;2.22;1.58;;;;;;;;;;5024507;28;20438;-66
2023/07/20 12:35:02;;;;;;;2.38;1.40;;;;;;;;;;5027671;28;20438;-68
2023/07/20 12:37:29;;;;;;;1.52;1.25;;;;;;;;;;5023640;28;20428;-66
2023/07/20 12:39:56;;;;;;;1.45;1.38;;;;;;;;;;5031406;28;21022;-66
2023/07/20 12:42:23;;;;;;;1.50;1.45;;;;;;;;;;5022532;28;20816;-65
2023/07/20 12:44:50;;;;;;;2.33;1.50;;;;;;;;;;5021386;28;20467;-65
2023/07/20 12:47:18;;;;;;;1.15;1.15;;;;;;;;;;5026947;28;20439;-66
2023/07/20 12:49:46;;;;;;;2.30;1.23;;;;;;;;;;5024704;28;20467;-65
2023/07/20 12:52:17;;;;;;;1.60;1.50;;;;;;;;;;5003681;28;20502;-68
2023/07/20 12:54:46;;;;;;;1.60;1.20;;;;;;;;;;5037107;28;20429;-65
2023/07/20 12:57:13;;;;;;;1.50;1.40;;;;;;;;;;5026741;28;20518;-67
2023/07/20 12:59:40;;;;;;;1.40;1.30;;;;;;;;;;5028729;28;20427;-66
2023/07/20 13:02:07;;;;;;;1.77;1.30;;;;;;;;;;5026178;28;20439;-65
2023/07/20 13:04:35;;;;;;;2.00;1.40;;;;;;;;;;5025788;28;20432;-67
2023/07/20 13:07:02;;;;;;;1.55;1.33;;;;;;;;;;5024048;28;20506;-67
2023/07/20 13:09:52;;;;;;;3.72;1.38;;;;;;;;;;5025555;28;20429;-66
2023/07/20 13:12:19;;;;;;;1.60;1.50;;;;;;;;;;5021353;28;20520;-66
2023/07/20 13:14:49;;;;;;;1.50;1.40;;;;;;;;;;5024802;28;20456;-67
2023/07/20 13:17:16;;;;;;;1.60;1.50;;;;;;;;;;5019755;28;20434;-67
2023/07/20 13:19:46;;;;;;;1.10;1.10;;;;;;;;;;5020010;28;20541;-65
2023/07/20 13:22:14;;;;;;;1.30;1.20;;;;;;;;;;5020232;28;20463;-68
2023/07/20 13:24:42;;;;;;;1.60;1.50;;;;;;;;;;5011366;28;20427;-68
2023/07/20 13:27:11;;;;;;;3.93;1.40;;;;;;;;;;5031887;28;20431;-66
2023/07/20 13:29:38;;;;;;;1.42;1.33;;;;;;;;;;5029892;28;20438;-70
2023/07/20 13:32:06;;;;;;;1.75;1.50;;;;;;;;;;5011893;28;20435;-66
2023/07/20 13:34:33;;;;;;;1.30;1.30;;;;;;;;;;5017869;28;20441;-69
2023/07/20 13:37:01;;;;;;;1.90;1.60;;;;;;;;;;5026134;28;20445;-67
2023/07/20 13:39:28;;;;;;;2.22;1.70;;;;;;;;;;5024514;28;20439;-66
2023/07/20 13:41:58;;;;;;;1.40;1.40;;;;;;;;;;5028260;28;20427;-65
2023/07/20 13:44:25;;;;;;;1.30;1.23;;;;;;;;;;5021501;28;20522;-66
2023/07/20 13:46:53;;;;;;;1.53;1.43;;;;;;;;;;5028052;28;20427;-66
2023/07/20 13:49:40;;;;;;;1.40;1.30;;;;;;;;;;5029112;28;20431;-67
2023/07/20 13:52:14;;;;;;;2.10;1.38;;;;;;;;;;5030022;28;20429;-70
2023/07/20 13:54:44;;;;;;;1.40;1.30;;;;;;;;;;5009420;28;20431;-67
2023/07/20 13:57:14;;;;;;;2.25;1.60;;;;;;;;;;5024995;28;20506;-71
2023/07/20 13:59:42;;;;;;;3.22;1.52;;;;;;;;;;5022507;28;20430;-66
2023/07/20 14:02:10;;;;;;;1.93;1.40;;;;;;;;;;5026959;28;20450;-66
2023/07/20 14:04:41;;;;;;;1.80;1.50;;;;;;;;;;5029513;28;20432;-69
2023/07/20 14:07:08;;;;;;;1.90;1.60;;;;;;;;;;5032854;28;20438;-67
2023/07/20 14:09:39;;;;;;;1.77;1.50;;;;;;;;;;5026409;28;22395;-66
2023/07/20 14:12:26;;;;;;;1.40;1.30;;;;;;;;;;5024479;28;20423;-67
2023/07/20 14:14:55;;;;;;;2.20;1.58;;;;;;;;;;5017134;28;20427;-67
2023/07/20 14:17:22;;;;;;;3.47;1.47;;;;;;;;;;5023071;28;20439;-67
2023/07/20 14:19:50;;;;;;;1.60;1.40;;;;;;;;;;5034886;28;20441;-68
2023/07/20 14:22:18;;;;;;;2.20;1.65;;;;;;;;;;5013926;28;20491;-69